createdAt,value
2018-01-28T00:00:30.139Z,21.13
2018-01-28T00:02:58.717Z,21.60
2018-01-28T00:05:27.273Z,23.20
2018-01-28T00:07:55.778Z,20.97
2018-01-28T00:10:24.307Z,23.20
2018-01-28T00:12:52.833Z,23.43
2018-01-28T00:15:22.006Z,21.40
2018-01-28T00:17:51.187Z,21.60
2018-01-28T00:20:19.706Z,23.27
2018-01-28T00:22:48.225Z,24.17
2018-01-28T00:25:16.760Z,23.97
2018-01-28T00:27:45.299Z,24.00
2018-01-28T00:30:13.842Z,24.03
2018-01-28T00:32:42.378Z,22.73
2018-01-28T00:35:10.889Z,24.50
2018-01-28T00:37:39.447Z,24.37
2018-01-28T00:40:07.996Z,23.90
2018-01-28T00:42:36.190Z,24.37
2018-01-28T00:45:04.438Z,23.93
2018-01-28T00:47:32.998Z,23.20
2018-01-28T00:50:01.533Z,24.57
2018-01-28T00:52:30.077Z,23.73
2018-01-28T00:54:58.629Z,23.70
2018-01-28T00:57:28.029Z,23.43
2018-01-28T00:59:57.332Z,22.83
2018-01-28T01:02:25.884Z,23.77
2018-01-28T01:04:54.412Z,22.87
2018-01-28T01:07:22.969Z,23.13
2018-01-28T01:09:52.288Z,23.03
2018-01-28T01:12:20.830Z,21.57
2018-01-28T01:14:49.387Z,21.30
2018-01-28T01:17:17.913Z,21.00
2018-01-28T01:19:47.169Z,23.03
2018-01-28T01:22:15.143Z,21.73
2018-01-28T01:24:43.719Z,20.97
2018-01-28T01:27:12.225Z,20.43
2018-01-28T01:29:40.785Z,20.17
2018-01-28T01:32:09.338Z,19.90
2018-01-28T01:34:37.310Z,21.33
2018-01-28T01:37:05.836Z,19.60
2018-01-28T01:39:34.373Z,20.50
2018-01-28T01:42:02.909Z,20.83
2018-01-28T01:44:31.490Z,19.33
2018-01-28T01:47:00.020Z,20.97
2018-01-28T01:49:35.255Z,20.70
2018-01-28T01:52:03.806Z,20.07
2018-01-28T01:54:33.077Z,20.73
2018-01-28T01:57:01.619Z,21.00
2018-01-28T01:59:30.171Z,20.10
2018-01-28T02:01:59.494Z,20.27
2018-01-28T02:04:28.031Z,20.30
2018-01-28T02:06:56.575Z,19.63
2018-01-28T02:09:25.126Z,20.17
2018-01-28T02:11:54.435Z,20.43
2018-01-28T02:14:23.745Z,20.83
2018-01-28T02:16:52.237Z,19.87
2018-01-28T02:19:20.763Z,21.93
2018-01-28T02:21:49.345Z,21.20
2018-01-28T02:24:17.953Z,22.20
2018-01-28T02:26:46.695Z,23.70
2018-01-28T02:29:15.237Z,22.90
2018-01-28T02:31:44.214Z,24.23
2018-01-28T02:34:13.560Z,24.77
2018-01-28T02:36:42.119Z,23.83
2018-01-28T02:39:10.666Z,24.03
2018-01-28T02:41:39.185Z,23.13
2018-01-28T02:44:07.730Z,24.03
2018-01-28T02:46:36.278Z,22.43
2018-01-28T02:49:04.833Z,23.30
2018-01-28T02:51:33.366Z,21.10
2018-01-28T02:54:01.906Z,21.77
2018-01-28T02:56:30.450Z,21.83
2018-01-28T02:58:58.714Z,22.17
2018-01-28T03:01:27.215Z,21.77
2018-01-28T03:03:56.513Z,22.60
2018-01-28T03:06:25.862Z,21.13
2018-01-28T03:08:54.138Z,22.97
2018-01-28T03:11:22.658Z,21.33
2018-01-28T03:13:51.238Z,22.53
2018-01-28T03:16:19.789Z,20.27
2018-01-28T03:18:48.311Z,20.17
2018-01-28T03:21:16.850Z,20.83
2018-01-28T03:23:45.375Z,19.20
2018-01-28T03:26:13.918Z,19.07
2018-01-28T03:28:42.470Z,19.40
2018-01-28T03:31:10.876Z,17.67
2018-01-28T03:33:38.993Z,18.83
2018-01-28T03:36:07.514Z,18.13
2018-01-28T03:38:36.071Z,17.67
2018-01-28T03:41:05.416Z,17.20
2018-01-28T03:43:33.961Z,16.23
2018-01-28T03:46:03.225Z,15.40
2018-01-28T03:48:31.803Z,14.87
2018-01-28T03:51:00.344Z,13.07
2018-01-28T03:53:28.862Z,14.97
2018-01-28T03:55:57.422Z,14.87
2018-01-28T03:58:25.942Z,13.60
2018-01-28T04:00:54.475Z,13.53
2018-01-28T04:03:23.064Z,12.70
2018-01-28T04:05:51.631Z,12.83
2018-01-28T04:08:20.171Z,13.33
2018-01-28T04:10:48.730Z,13.17
2018-01-28T04:13:16.679Z,12.37
2018-01-28T04:15:45.276Z,10.93
2018-01-28T04:18:13.842Z,11.73
2018-01-28T04:20:42.411Z,11.13
2018-01-28T04:23:11.660Z,11.63
2018-01-28T04:25:40.204Z,10.60
2018-01-28T04:28:08.758Z,11.27
2018-01-28T04:30:38.073Z,10.73
2018-01-28T04:33:06.649Z,11.33
2018-01-28T04:35:35.950Z,10.47
2018-01-28T04:38:05.279Z,11.10
2018-01-28T04:40:33.865Z,10.73
2018-01-28T04:43:02.428Z,10.50
2018-01-28T04:45:30.957Z,10.43
2018-01-28T04:47:59.486Z,9.50
2018-01-28T04:50:28.034Z,9.57
2018-01-28T04:52:56.565Z,10.53
2018-01-28T04:55:25.081Z,9.17
2018-01-28T04:57:53.421Z,9.57
2018-01-28T05:00:21.819Z,9.83
2018-01-28T05:02:50.220Z,9.90
2018-01-28T05:05:18.751Z,9.80
2018-01-28T05:07:47.311Z,10.33
2018-01-28T05:10:15.727Z,9.87
2018-01-28T05:12:44.114Z,9.90
2018-01-28T05:15:12.672Z,10.77
2018-01-28T05:17:41.235Z,11.13
2018-01-28T05:20:09.585Z,10.17
2018-01-28T05:22:37.969Z,10.23
2018-01-28T05:25:06.539Z,10.37
2018-01-28T05:27:34.936Z,11.10
2018-01-28T05:30:03.507Z,10.57
2018-01-28T05:32:32.058Z,12.10
2018-01-28T05:35:00.597Z,11.37
2018-01-28T05:37:29.154Z,12.77
2018-01-28T05:39:57.702Z,12.03
2018-01-28T05:42:26.260Z,12.93
2018-01-28T05:44:55.280Z,12.97
2018-01-28T05:47:23.879Z,13.60
2018-01-28T05:49:52.444Z,13.70
2018-01-28T05:52:21.042Z,13.67
2018-01-28T05:54:49.578Z,14.70
2018-01-28T05:57:17.963Z,14.20
2018-01-28T05:59:47.264Z,14.37
2018-01-28T06:02:16.439Z,13.47
2018-01-28T06:04:44.794Z,14.27
2018-01-28T06:07:13.336Z,14.83
2018-01-28T06:09:41.882Z,15.10
2018-01-28T06:12:10.386Z,14.73
2018-01-28T06:14:39.707Z,14.50
2018-01-28T06:17:08.266Z,14.27
2018-01-28T06:19:36.769Z,12.97
2018-01-28T06:22:05.270Z,13.80
2018-01-28T06:24:33.849Z,13.27
2018-01-28T06:27:02.186Z,12.30
2018-01-28T06:29:30.773Z,13.23
2018-01-28T06:31:59.627Z,13.37
2018-01-28T06:34:30.773Z,12.87
2018-01-28T06:36:59.346Z,12.93
2018-01-28T06:39:27.890Z,10.93
2018-01-28T06:41:56.426Z,13.17
2018-01-28T06:44:24.987Z,11.67
2018-01-28T06:46:53.498Z,11.97
2018-01-28T06:49:22.013Z,12.00
2018-01-28T06:51:51.302Z,12.23
2018-01-28T06:54:20.634Z,10.83
2018-01-28T06:56:49.192Z,11.23
2018-01-28T06:59:17.726Z,11.37
2018-01-28T07:01:45.908Z,10.23
2018-01-28T07:04:14.443Z,10.93
2018-01-28T07:06:42.973Z,11.30
2018-01-28T07:09:11.483Z,10.73
2018-01-28T07:11:40.688Z,11.00
2018-01-28T07:14:09.397Z,12.07
2018-01-28T07:16:37.920Z,10.37
2018-01-28T07:19:06.478Z,10.93
2018-01-28T07:21:35.030Z,10.53
2018-01-28T07:24:03.687Z,10.97
2018-01-28T07:26:32.255Z,9.83
2018-01-28T07:29:00.823Z,10.60
2018-01-28T07:31:29.330Z,11.03
2018-01-28T07:33:57.902Z,10.33
2018-01-28T07:36:26.478Z,10.83
2018-01-28T07:38:55.022Z,9.90
2018-01-28T07:41:23.617Z,11.03
2018-01-28T07:43:52.180Z,9.53
2018-01-28T07:46:20.694Z,10.90
2018-01-28T07:48:49.263Z,10.27
2018-01-28T07:51:17.832Z,10.23
2018-01-28T07:53:46.221Z,10.33
2018-01-28T07:56:14.774Z,11.20
2018-01-28T07:58:43.930Z,10.97
2018-01-28T08:01:12.443Z,10.80
2018-01-28T08:03:41.726Z,10.10
2018-01-28T08:06:10.356Z,10.27
2018-01-28T08:08:38.815Z,10.43
2018-01-28T08:11:08.231Z,10.67
2018-01-28T08:13:37.247Z,11.00
2018-01-28T08:16:05.770Z,10.20
2018-01-28T08:18:34.361Z,10.47
2018-01-28T08:21:02.892Z,10.17
2018-01-28T08:23:31.250Z,10.83
2018-01-28T08:25:59.671Z,9.60
2018-01-28T08:28:37.959Z,9.63
2018-01-28T08:31:06.361Z,9.87
2018-01-28T08:33:34.762Z,9.53
2018-01-28T08:36:03.145Z,8.80
2018-01-28T08:38:31.526Z,9.03
2018-01-28T08:41:00.074Z,9.17
2018-01-28T08:43:28.601Z,8.77
2018-01-28T08:45:57.894Z,8.10
2018-01-28T08:48:26.443Z,9.60
2018-01-28T08:50:55.181Z,8.47
2018-01-28T08:53:24.386Z,8.60
2018-01-28T08:55:52.956Z,8.23
2018-01-28T08:58:22.278Z,8.53
2018-01-28T09:00:50.797Z,8.37
2018-01-28T09:03:19.334Z,8.13
2018-01-28T09:05:47.830Z,8.70
2018-01-28T09:08:16.393Z,7.97
2018-01-28T09:10:45.707Z,7.50
2018-01-28T09:13:14.254Z,8.37
2018-01-28T09:15:42.809Z,8.07
2018-01-28T09:18:11.365Z,7.87
2018-01-28T09:20:39.900Z,7.27
2018-01-28T09:23:08.459Z,7.93
2018-01-28T09:25:36.869Z,8.63
2018-01-28T09:28:06.210Z,8.30
2018-01-28T09:30:34.755Z,8.37
2018-01-28T09:33:04.097Z,7.97
2018-01-28T09:35:32.614Z,8.07
2018-01-28T09:38:01.179Z,7.97
2018-01-28T09:40:29.765Z,8.53
2018-01-28T09:42:58.494Z,7.23
2018-01-28T09:45:27.793Z,7.07
2018-01-28T09:47:57.105Z,6.90
2018-01-28T09:50:26.436Z,7.43
2018-01-28T09:52:55.048Z,6.43
2018-01-28T09:55:23.562Z,6.53
2018-01-28T09:57:52.862Z,6.03
2018-01-28T10:00:22.188Z,6.37
2018-01-28T10:02:50.692Z,5.97
2018-01-28T10:05:19.262Z,5.67
2018-01-28T10:07:47.805Z,5.37
2018-01-28T10:10:16.293Z,5.07
2018-01-28T10:12:44.853Z,5.10
2018-01-28T10:15:13.420Z,6.10
2018-01-28T10:17:41.978Z,5.73
2018-01-28T10:20:10.362Z,5.73
2018-01-28T10:22:38.885Z,5.47
2018-01-28T10:25:07.521Z,5.83
2018-01-28T10:27:36.086Z,5.63
2018-01-28T10:30:04.418Z,5.27
2018-01-28T10:32:32.945Z,5.00
2018-01-28T10:35:01.567Z,5.73
2018-01-28T10:37:30.613Z,5.17
2018-01-28T10:39:59.946Z,5.60
2018-01-28T10:42:28.489Z,5.00
2018-01-28T10:44:57.046Z,4.80
2018-01-28T10:47:25.533Z,5.53
2018-01-28T10:49:54.105Z,4.97
2018-01-28T10:52:22.642Z,4.73
2018-01-28T10:54:51.141Z,5.90
2018-01-28T10:57:19.679Z,5.33
2018-01-28T10:59:48.998Z,4.87
2018-01-28T11:02:17.971Z,5.57
2018-01-28T11:04:47.244Z,5.70
2018-01-28T11:07:15.877Z,5.73
2018-01-28T11:09:44.382Z,4.40
2018-01-28T11:12:12.919Z,4.53
2018-01-28T11:14:42.859Z,4.40
2018-01-28T11:17:11.556Z,4.90
2018-01-28T11:19:40.280Z,4.60
2018-01-28T11:22:08.711Z,5.20
2018-01-28T11:24:37.365Z,4.83
2018-01-28T11:27:05.924Z,6.63
2018-01-28T11:29:34.491Z,6.40
2018-01-28T11:32:03.017Z,8.73
2018-01-28T11:34:32.319Z,6.47
2018-01-28T11:37:01.687Z,8.13
2018-01-28T11:39:29.898Z,5.60
2018-01-28T11:41:58.458Z,6.03
2018-01-28T11:44:27.025Z,5.17
2018-01-28T11:46:55.494Z,4.90
2018-01-28T11:49:24.049Z,4.30
2018-01-28T11:51:52.604Z,3.33
2018-01-28T11:54:21.187Z,3.43
2018-01-28T11:56:50.484Z,3.53
2018-01-28T11:59:19.019Z,4.10
2018-01-28T12:01:47.570Z,3.23
2018-01-28T12:04:16.118Z,3.27
2018-01-28T12:06:46.466Z,3.00
2018-01-28T12:09:15.772Z,3.50
2018-01-28T12:11:45.066Z,3.30
2018-01-28T12:14:14.359Z,3.03
2018-01-28T12:16:42.881Z,3.03
2018-01-28T12:19:11.417Z,4.10
2018-01-28T12:21:39.951Z,3.60
2018-01-28T12:24:08.547Z,3.37
2018-01-28T12:26:37.042Z,3.30
2018-01-28T12:29:05.609Z,3.10
2018-01-28T12:31:34.010Z,3.30
2018-01-28T12:34:02.360Z,3.20
2018-01-28T12:36:30.906Z,3.13
2018-01-28T12:39:00.327Z,3.23
2018-01-28T12:41:28.887Z,3.30
2018-01-28T12:43:58.195Z,3.60
2018-01-28T12:46:27.186Z,3.10
2018-01-28T12:48:56.495Z,2.73
2018-01-28T12:51:25.039Z,2.80
2018-01-28T12:53:53.778Z,2.80
2018-01-28T12:56:22.269Z,2.90
2018-01-28T12:58:50.830Z,2.70
2018-01-28T13:01:19.374Z,2.70
2018-01-28T13:03:47.902Z,2.80
2018-01-28T13:06:16.446Z,3.60
2018-01-28T13:08:44.387Z,3.47
2018-01-28T13:11:12.942Z,3.10
2018-01-28T13:13:41.506Z,2.63
2018-01-28T13:16:10.057Z,2.77
2018-01-28T13:18:38.559Z,3.20
2018-01-28T13:21:07.885Z,3.07
2018-01-28T13:23:36.430Z,3.47
2018-01-28T13:26:04.949Z,3.00
2018-01-28T13:28:33.482Z,3.90
2018-01-28T13:31:02.043Z,4.47
2018-01-28T13:33:30.531Z,3.60
2018-01-28T13:35:59.064Z,3.80
2018-01-28T13:38:27.623Z,3.13
2018-01-28T13:40:56.142Z,5.30
2018-01-28T13:43:24.650Z,4.80
2018-01-28T13:45:53.202Z,4.90
2018-01-28T13:48:21.697Z,4.70
2018-01-28T13:50:50.225Z,3.60
2018-01-28T13:53:18.758Z,4.00
2018-01-28T13:55:47.113Z,3.20
2018-01-28T13:58:16.496Z,3.10
2018-01-28T14:06:42.461Z,3.63
2018-01-28T14:09:11.743Z,4.17
2018-01-28T14:11:40.298Z,3.83
2018-01-28T14:14:08.846Z,4.23
2018-01-28T14:16:37.092Z,3.97
2018-01-28T14:19:05.475Z,3.73
2018-01-28T14:21:34.797Z,2.83
2018-01-28T14:24:03.347Z,3.23
2018-01-28T14:26:31.943Z,3.43
2018-01-28T14:29:00.336Z,3.20
2018-01-28T14:31:29.642Z,3.10
2018-01-28T14:33:58.954Z,3.53
2018-01-28T14:36:27.452Z,3.80
2018-01-28T14:38:55.966Z,3.30
2018-01-28T14:41:24.519Z,3.23
2018-01-28T14:43:52.860Z,2.90
2018-01-28T14:46:22.260Z,3.60
2018-01-28T14:48:50.785Z,2.83
2018-01-28T14:51:19.122Z,2.93
2018-01-28T14:53:48.265Z,3.13
2018-01-28T14:56:16.646Z,3.00
2018-01-28T14:58:45.053Z,3.20
2018-01-28T15:01:13.591Z,2.63
2018-01-28T15:03:42.146Z,3.20
2018-01-28T15:06:10.702Z,4.33
2018-01-28T15:08:39.245Z,3.03
2018-01-28T15:11:07.830Z,2.83
2018-01-28T15:13:36.364Z,2.93
2018-01-28T15:16:05.659Z,2.90
2018-01-28T15:18:34.951Z,3.27
2018-01-28T15:21:03.486Z,3.43
2018-01-28T15:23:32.030Z,3.67
2018-01-28T15:26:01.343Z,3.40
2018-01-28T15:28:30.055Z,3.13
2018-01-28T15:30:58.622Z,3.10
2018-01-28T15:33:27.164Z,3.00
2018-01-28T15:35:55.667Z,2.97
2018-01-28T15:38:25.166Z,3.47
2018-01-28T15:40:54.493Z,3.77
2018-01-28T15:43:22.991Z,3.37
2018-01-28T15:45:51.506Z,3.87
2018-01-28T15:48:20.081Z,4.27
2018-01-28T15:50:48.470Z,3.70
2018-01-28T15:53:16.861Z,3.87
2018-01-28T15:55:45.412Z,3.93
2018-01-28T15:58:13.958Z,5.13
2018-01-28T16:00:42.508Z,3.93
2018-01-28T16:03:11.054Z,3.90
2018-01-28T16:05:39.420Z,3.70
2018-01-28T16:08:07.967Z,3.70
2018-01-28T16:10:37.285Z,4.23
2018-01-28T16:13:05.804Z,3.33
2018-01-28T16:15:34.375Z,3.83
2018-01-28T16:18:02.657Z,3.67
2018-01-28T16:20:30.867Z,3.87
2018-01-28T16:22:59.426Z,4.20
2018-01-28T16:25:28.968Z,3.87
2018-01-28T16:27:58.276Z,4.20
2018-01-28T16:30:26.855Z,4.23
2018-01-28T16:32:55.406Z,3.90
2018-01-28T16:35:23.877Z,4.90
2018-01-28T16:37:52.408Z,4.53
2018-01-28T16:40:20.950Z,3.93
2018-01-28T16:42:49.473Z,3.90
2018-01-28T16:45:18.038Z,3.87
2018-01-28T16:47:47.142Z,3.80
2018-01-28T16:50:16.389Z,3.40
2018-01-28T16:52:45.750Z,3.67
2018-01-28T16:55:14.471Z,3.73
2018-01-28T16:57:42.944Z,3.33
2018-01-28T17:00:11.535Z,3.37
2018-01-28T17:02:40.098Z,3.27
2018-01-28T17:05:08.642Z,3.93
2018-01-28T17:07:37.186Z,3.20
2018-01-28T17:10:05.755Z,3.13
2018-01-28T17:12:34.289Z,3.00
2018-01-28T17:15:02.847Z,2.70
2018-01-28T17:17:31.249Z,3.57
2018-01-28T17:19:59.804Z,3.20
2018-01-28T17:22:28.376Z,3.17
2018-01-28T17:24:56.959Z,4.07
2018-01-28T17:27:25.498Z,3.80
2018-01-28T17:29:54.773Z,3.80
2018-01-28T17:32:23.310Z,4.20
2018-01-28T17:34:51.663Z,4.37
2018-01-28T17:37:20.953Z,4.50
2018-01-28T17:39:50.333Z,4.27
2018-01-28T17:42:18.895Z,4.47
2018-01-28T17:44:47.454Z,4.00
2018-01-28T17:47:15.983Z,4.00
2018-01-28T17:49:46.426Z,3.80
2018-01-28T17:52:15.737Z,4.00
2018-01-28T17:54:45.019Z,4.73
2018-01-28T17:57:14.359Z,4.27
2018-01-28T17:59:42.277Z,3.60
2018-01-28T18:02:10.786Z,4.13
2018-01-28T18:04:40.071Z,3.67
2018-01-28T18:07:09.369Z,3.33
2018-01-28T18:09:37.274Z,3.20
2018-01-28T18:12:05.798Z,4.30
2018-01-28T18:14:34.338Z,4.80
2018-01-28T18:17:02.835Z,7.70
2018-01-28T18:19:30.764Z,4.63
2018-01-28T18:21:59.305Z,3.30
2018-01-28T18:24:27.848Z,3.47
2018-01-28T18:26:56.437Z,3.30
2018-01-28T18:29:24.998Z,3.50
2018-01-28T18:31:54.305Z,4.10
2018-01-28T18:34:22.262Z,4.70
2018-01-28T18:36:51.263Z,3.87
2018-01-28T18:39:20.562Z,3.33
2018-01-28T18:41:49.115Z,3.40
2018-01-28T18:44:17.653Z,3.40
2018-01-28T18:46:46.174Z,3.90
2018-01-28T18:49:14.706Z,4.00
2018-01-28T18:51:44.017Z,3.53
2018-01-28T18:54:12.541Z,3.63
2018-01-28T18:56:41.102Z,3.53
2018-01-28T18:59:09.674Z,3.37
2018-01-28T19:01:37.582Z,3.50
2018-01-28T19:04:06.121Z,4.33
2018-01-28T19:06:34.685Z,3.60
2018-01-28T19:09:03.234Z,3.00
2018-01-28T19:11:31.774Z,3.47
2018-01-28T19:14:00.345Z,3.33
2018-01-28T19:16:28.928Z,3.07
2018-01-28T19:18:57.493Z,3.00
2018-01-28T19:21:26.030Z,3.27
2018-01-28T19:23:54.571Z,3.37
2018-01-28T19:26:23.106Z,3.00
2018-01-28T19:28:51.685Z,3.37
2018-01-28T19:31:20.230Z,3.30
2018-01-28T19:33:48.757Z,3.80
2018-01-28T19:36:17.296Z,3.33
2018-01-28T19:38:45.805Z,3.10
2018-01-28T19:41:14.350Z,4.13
2018-01-28T19:43:42.883Z,3.83
2018-01-28T19:46:11.412Z,3.60
2018-01-28T19:48:39.962Z,3.43
2018-01-28T19:51:09.299Z,3.20
2018-01-28T19:53:37.778Z,3.60
2018-01-28T19:56:06.327Z,3.37
2018-01-28T19:58:35.666Z,3.63
2018-01-28T20:01:03.846Z,3.47
2018-01-28T20:03:32.382Z,3.57
2018-01-28T20:06:01.692Z,3.33
2018-01-28T20:08:31.052Z,3.30
2018-01-28T20:10:59.573Z,3.60
2018-01-28T20:13:28.134Z,3.43
2018-01-28T20:15:56.666Z,3.50
2018-01-28T20:18:25.235Z,3.90
2018-01-28T20:20:53.758Z,4.03
2018-01-28T20:23:22.281Z,3.53
2018-01-28T20:25:51.602Z,3.40
2018-01-28T20:28:20.140Z,3.27
2018-01-28T20:30:48.667Z,3.30
2018-01-28T20:33:17.187Z,3.70
2018-01-28T20:35:45.753Z,4.07
2018-01-28T20:38:14.273Z,4.07
2018-01-28T20:40:42.824Z,3.67
2018-01-28T20:43:11.390Z,4.17
2018-01-28T20:45:39.942Z,4.17
2018-01-28T20:48:09.276Z,4.00
2018-01-28T20:50:38.578Z,4.07
2018-01-28T20:53:07.061Z,3.97
2018-01-28T20:55:35.618Z,4.00
2018-01-28T20:58:04.176Z,4.20
2018-01-28T21:00:33.494Z,4.40
2018-01-28T21:03:02.047Z,4.47
2018-01-28T21:05:30.605Z,4.70
2018-01-28T21:07:59.104Z,4.30
2018-01-28T21:10:27.667Z,5.07
2018-01-28T21:12:56.262Z,4.90
2018-01-28T21:15:24.809Z,4.13
2018-01-28T21:17:53.366Z,4.37
2018-01-28T21:20:22.673Z,5.23
2018-01-28T21:22:52.134Z,4.63
2018-01-28T21:25:20.646Z,4.60
2018-01-28T21:27:50.011Z,5.00
2018-01-28T21:30:18.254Z,5.70
2018-01-28T21:32:46.791Z,6.03
2018-01-28T21:35:15.339Z,5.57
2018-01-28T21:37:43.900Z,5.43
2018-01-28T21:40:12.445Z,6.00
2018-01-28T21:42:41.425Z,5.30
2018-01-28T21:45:09.981Z,5.60
2018-01-28T21:47:38.364Z,5.07
2018-01-28T21:50:06.919Z,6.33
2018-01-28T21:52:35.491Z,4.90
2018-01-28T21:55:04.058Z,5.83
2018-01-28T21:57:33.343Z,5.23
2018-01-28T22:00:01.891Z,4.80
2018-01-28T22:02:30.441Z,4.87
2018-01-28T22:04:59.009Z,4.90
2018-01-28T22:07:28.277Z,4.80
2018-01-28T22:09:56.834Z,4.83
2018-01-28T22:12:25.385Z,4.60
2018-01-28T22:14:53.400Z,4.73
2018-01-28T22:17:21.791Z,4.77
2018-01-28T22:19:50.334Z,4.60
2018-01-28T22:22:18.877Z,4.93
2018-01-28T22:24:48.162Z,4.43
2018-01-28T22:27:17.640Z,4.43
2018-01-28T22:29:46.174Z,4.37
2018-01-28T22:32:15.493Z,4.20
2018-01-28T22:34:44.027Z,3.90
2018-01-28T22:37:12.547Z,3.50
2018-01-28T22:39:41.065Z,4.43
2018-01-28T22:42:09.618Z,3.80
2018-01-28T22:44:38.102Z,4.10
2018-01-28T22:47:06.660Z,3.97
2018-01-28T22:49:35.965Z,4.60
2018-01-28T22:52:05.352Z,4.00
2018-01-28T22:54:33.904Z,4.27
2018-01-28T22:57:02.426Z,3.93
2018-01-28T22:59:30.984Z,4.43
2018-01-28T23:02:00.062Z,4.43
2018-01-28T23:04:28.615Z,3.90
2018-01-28T23:06:57.149Z,3.90
2018-01-28T23:09:25.666Z,4.17
2018-01-28T23:11:54.187Z,3.93
2018-01-28T23:14:23.077Z,4.53
2018-01-28T23:16:51.637Z,4.20
2018-01-28T23:19:20.426Z,4.30
2018-01-28T23:21:48.653Z,4.63
2018-01-28T23:24:17.181Z,4.80
2018-01-28T23:26:46.050Z,4.17
2018-01-28T23:29:14.638Z,4.40
2018-01-28T23:31:43.951Z,4.23
2018-01-28T23:34:12.516Z,4.33
2018-01-28T23:36:41.670Z,4.10
2018-01-28T23:39:10.257Z,4.10
2018-01-28T23:41:38.803Z,4.10
2018-01-28T23:44:07.531Z,4.57
2018-01-28T23:46:36.935Z,4.30
2018-01-28T23:49:07.927Z,4.20
2018-01-28T23:51:36.988Z,4.53
2018-01-28T23:54:08.057Z,4.50
2018-01-28T23:56:36.515Z,4.40
2018-01-28T23:59:06.874Z,4.30
